Vremea acum in Ocna Mures - Romania

Vrei sa afli care e starea vremii acum in Alba - Romania? Dorim sa iti furnizam starea vremii pentru Alba - Romania. Starea vremii Alba - Romania pentru astazi.

Vremea acum in Ocna Mures

Temperatura: 21 °C

Este: Senin
Se simte ca: 21 °C
Innorat: 0 %
Precipitatii: %
Presiune atmosferica: 1012 hPa
Umiditate: 49%
Vizibilitate: 10 km
Vantul bate din SE cu 13 km/h

Evolutia vremii in Ocna Mures pe ore

Ora: 00:00
Temperatura: °C
Sansa de precipitatii: %
Ora Descriere Temp Se simte Precipitatii Umiditate Vant
00:00Senin9.8°9.5°0%77%WSW 5 KM/H
01:00Senin9.6°9.3°0%78%SW 5 KM/H
02:00Senin9.5°9.2°0%77%SW 5 KM/H
03:00Senin9.4°9.1°0%76%SSW 5 KM/H
04:00Senin9.1°8.6°0%76%SSW 5.4 KM/H
05:00Partial innorat8.4°0%76%SSW 5.8 KM/H
06:00Senin8.7°8.3°0%76%SSW 5 KM/H
07:00Partial innorat10°9.6°0%73%S 5.4 KM/H
08:00Innorat12.6°12.4°0%65%SSE 6.1 KM/H
09:00Partial innorat13.6°13.3°0%62%SE 7.6 KM/H
10:00Senin16°16°0%54%SE 7.9 KM/H
11:00Partial innorat18.4°18.4°0%48%SE 9.4 KM/H
12:00Partial innorat19.8°19.8°0%45%SSE 11.5 KM/H
13:00Partial innorat21.1°21.1°0%43%SE 10.1 KM/H
14:00Partial innorat19.2°19.2°0%51%ESE 6.8 KM/H
15:00Partial innorat18.5°18.5°0%55%ENE 6.1 KM/H
16:00Partial innorat18.6°18.6°0%55%NE 5.4 KM/H
17:00Partial innorat17.7°17.7°0%58%NNE 3.6 KM/H
18:00Senin17.5°17.5°0%60%NNE 3.6 KM/H
19:00Partial innorat16.9°16.9°0%59%NE 2.9 KM/H
20:00Partial innorat16.3°16.3°0%60%ESE 2.5 KM/H
21:00Partial innorat15.6°15.6°0%63%S 4.7 KM/H
22:00Partial innorat15.1°15.1°0%65%S 5.8 KM/H
23:00Partial innorat15.4°15.4°0%64%SSE 6.8 KM/H




tutorials